Terminal Aerodrome Forecast
Issued by NWS

Current Version | Previous Version | Text Only | Print | Product List | Glossary On
Versions: 1 2 3 4 5 6 7 8 9 10 11 12 13 14 15 16 17 18 19
759
FTUS43 KILX 272339
TAFBMI
TAF
KBMI 272339Z 2800/2824 27008KT P6SM SCT250
     FM280200 24005KT P6SM SCT150
     FM280800 29006KT P6SM VCSH BKN090
     FM281200 33011KT P6SM BKN025
     FM281600 33013G18KT P6SM SCT015 OVC025=

USA.gov is the U.S. government's official web portal to all federal, state and local government web resources and services.